Time;durP1;ratioP1;P1;durP2;ratioP2;P2;SDS_P1;SDS_P2;PMS_P1;PMS_P2;Temp;Humidity;BMP_temperature;BMP_pressure;BME280_temperature;BME280_humidity;BME280_pressure;Samples;Min_cycle;Max_cycle;Signal;HPM_P1;HPM_P2
2022/04/27 00:00:26;;;;;;;10.10;9.25;;;6.70;99.90;;;;;;485355;244;28019;-71
2022/04/27 00:02:30;;;;;;;11.50;10.40;;;6.70;99.90;;;;;;485350;245;27587;-72
2022/04/27 00:04:29;;;;;;;11.12;10.43;;;6.80;99.90;;;;;;485168;245;27529;-71
2022/04/27 00:06:30;;;;;;;11.40;10.50;;;6.80;99.90;;;;;;485328;244;27621;-70
2022/04/27 00:08:31;;;;;;;12.30;11.50;;;6.70;99.90;;;;;;485341;244;28066;-69
2022/04/27 00:10:32;;;;;;;11.30;10.55;;;6.70;99.90;;;;;;485349;244;28460;-72
2022/04/27 00:12:34;;;;;;;10.63;9.73;;;6.50;99.90;;;;;;485382;244;28003;-71
2022/04/27 00:14:35;;;;;;;10.68;9.88;;;6.50;99.90;;;;;;485369;245;28971;-71
2022/04/27 00:16:36;;;;;;;11.00;10.20;;;6.50;99.90;;;;;;485364;245;27537;-69
2022/04/27 00:18:38;;;;;;;11.50;10.60;;;6.40;99.90;;;;;;485342;244;27520;-71
2022/04/27 00:20:39;;;;;;;10.33;9.63;;;6.40;99.90;;;;;;485354;244;27498;-71
2022/04/27 00:22:40;;;;;;;9.93;9.25;;;6.40;99.90;;;;;;485330;245;29217;-70
2022/04/27 00:24:41;;;;;;;9.48;8.88;;;6.30;99.90;;;;;;485341;245;27981;-71
2022/04/27 00:26:42;;;;;;;8.88;8.35;;;6.30;99.90;;;;;;485328;245;27523;-72
2022/04/27 00:28:44;;;;;;;9.57;8.95;;;6.30;99.90;;;;;;485336;245;27565;-71
2022/04/27 00:30:45;;;;;;;9.27;8.57;;;6.20;99.90;;;;;;485333;245;27541;-69
2022/04/27 00:32:46;;;;;;;9.40;8.80;;;6.20;99.90;;;;;;485337;245;27457;-70
2022/04/27 00:34:47;;;;;;;9.45;8.82;;;6.20;99.90;;;;;;485319;245;27614;-69
2022/04/27 00:36:49;;;;;;;9.63;8.93;;;6.20;99.90;;;;;;485339;245;28010;-69
2022/04/27 00:38:50;;;;;;;9.18;8.55;;;6.10;99.90;;;;;;485329;245;28701;-69
2022/04/27 00:40:51;;;;;;;8.68;8.10;;;6.00;99.90;;;;;;485336;245;27501;-71
2022/04/27 00:42:52;;;;;;;10.23;9.60;;;5.90;99.90;;;;;;485294;245;27624;-72
2022/04/27 00:44:54;;;;;;;9.80;9.13;;;5.80;99.90;;;;;;485325;245;27494;-70
2022/04/27 00:46:55;;;;;;;9.50;8.90;;;5.70;99.90;;;;;;485323;245;27620;-71
2022/04/27 00:48:56;;;;;;;8.43;7.93;;;5.70;99.90;;;;;;485332;245;27456;-71
2022/04/27 00:50:57;;;;;;;8.73;8.13;;;5.70;99.90;;;;;;485324;245;27938;-71
2022/04/27 00:52:59;;;;;;;9.38;8.75;;;5.70;99.90;;;;;;485324;245;28010;-71
2022/04/27 00:55:00;;;;;;;8.90;8.40;;;5.60;99.90;;;;;;485301;245;27501;-71
2022/04/27 00:57:01;;;;;;;8.45;7.95;;;5.60;99.90;;;;;;485302;245;27520;-70
2022/04/27 00:59:02;;;;;;;9.77;9.20;;;5.60;99.90;;;;;;485332;245;27530;-72
2022/04/27 01:01:04;;;;;;;9.90;9.20;;;5.60;99.90;;;;;;485320;244;27500;-69
2022/04/27 01:03:05;;;;;;;10.02;9.43;;;5.60;99.90;;;;;;485313;245;27537;-72
2022/04/27 01:05:09;;;;;;;10.13;9.52;;;5.60;99.90;;;;;;485318;245;27997;-69
2022/04/27 01:07:08;;;;;;;9.50;8.80;;;5.60;99.90;;;;;;485139;245;28092;-68
2022/04/27 01:09:09;;;;;;;9.15;8.55;;;5.60;99.90;;;;;;485185;245;27623;-70
2022/04/27 01:11:10;;;;;;;9.82;9.13;;;5.60;99.90;;;;;;485318;245;27490;-71
2022/04/27 01:13:11;;;;;;;9.18;8.57;;;5.60;99.90;;;;;;485307;245;27522;-74
2022/04/27 01:15:13;;;;;;;10.68;9.98;;;5.60;99.90;;;;;;485316;245;27585;-71
2022/04/27 01:17:14;;;;;;;9.57;8.98;;;5.50;99.90;;;;;;485307;245;27449;-69
2022/04/27 01:19:16;;;;;;;10.00;9.20;;;5.50;99.90;;;;;;485315;245;28222;-69
2022/04/27 01:21:16;;;;;;;8.90;8.30;;;5.50;99.90;;;;;;485301;245;27902;-71
2022/04/27 01:23:18;;;;;;;8.82;8.30;;;5.40;99.90;;;;;;485311;245;27646;-70
2022/04/27 01:25:19;;;;;;;8.60;8.10;;;5.40;99.90;;;;;;485330;245;27632;-71
2022/04/27 01:27:20;;;;;;;8.18;7.68;;;5.30;99.90;;;;;;485308;245;27533;-69
2022/04/27 01:29:25;;;;;;;7.70;7.30;;;5.30;99.90;;;;;;485322;245;27605;-71
2022/04/27 01:31:26;;;;;;;9.50;8.90;;;5.30;99.90;;;;;;485318;245;28318;-72
2022/04/27 01:33:27;;;;;;;9.48;8.88;;;5.30;99.90;;;;;;485340;245;28008;-69
2022/04/27 01:35:28;;;;;;;10.20;9.52;;;5.30;99.90;;;;;;485287;244;27611;-70
2022/04/27 01:39:49;;;;;;;8.27;7.78;;;5.30;99.90;;;;;;485333;245;27995;-69
2022/04/27 01:41:50;;;;;;;8.57;7.97;;;5.30;99.90;;;;;;485346;245;27562;-70
2022/04/27 01:43:51;;;;;;;8.10;7.60;;;5.20;99.90;;;;;;485331;242;27573;-69
2022/04/27 01:45:53;;;;;;;9.23;8.60;;;5.20;99.90;;;;;;485321;245;27530;-69
2022/04/27 01:47:54;;;;;;;8.98;8.38;;;5.20;99.90;;;;;;485308;245;27522;-72
2022/04/27 01:49:55;;;;;;;8.43;7.90;;;5.20;99.90;;;;;;485309;245;27418;-69
2022/04/27 01:54:16;;;;;;;8.48;7.97;;;5.00;99.90;;;;;;485328;245;28560;-69
2022/04/27 01:56:17;;;;;;;9.20;8.60;;;5.10;99.90;;;;;;485337;245;28024;-69
2022/04/27 01:58:18;;;;;;;10.85;10.15;;;5.10;99.90;;;;;;485339;245;27550;-69
2022/04/27 02:00:21;;;;;;;9.80;9.20;;;5.10;99.90;;;;;;485343;244;27490;-69
2022/04/27 02:02:21;;;;;;;9.88;9.27;;;5.10;99.90;;;;;;485239;245;27552;-70
2022/04/27 02:04:22;;;;;;;9.85;9.25;;;5.10;99.90;;;;;;485332;245;27603;-69
2022/04/27 02:06:23;;;;;;;9.52;8.98;;;5.20;99.90;;;;;;485355;245;27528;-72
2022/04/27 02:08:25;;;;;;;9.18;8.57;;;5.20;99.90;;;;;;485349;245;27486;-70
2022/04/27 02:10:26;;;;;;;10.27;9.60;;;5.20;99.90;;;;;;485348;245;28172;-70
2022/04/27 02:12:27;;;;;;;8.65;8.13;;;5.10;99.90;;;;;;485333;245;28004;-71
2022/04/27 02:14:28;;;;;;;7.62;7.12;;;5.10;99.90;;;;;;485264;245;27486;-69
2022/04/27 02:16:30;;;;;;;8.70;8.15;;;5.10;99.90;;;;;;485275;245;27526;-69
2022/04/27 02:18:31;;;;;;;9.13;8.63;;;5.00;99.90;;;;;;485278;245;27477;-69
2022/04/27 02:20:32;;;;;;;10.30;9.60;;;4.80;99.90;;;;;;485303;245;27517;-69
2022/04/27 02:22:36;;;;;;;8.02;7.53;;;4.60;99.90;;;;;;485301;245;27530;-70
2022/04/27 02:24:38;;;;;;;9.32;8.73;;;4.60;99.90;;;;;;485297;245;27535;-69
2022/04/27 02:26:39;;;;;;;8.30;7.70;;;4.60;99.90;;;;;;485309;245;27578;-69
2022/04/27 02:28:40;;;;;;;9.55;8.95;;;4.70;99.90;;;;;;485297;242;27527;-69
2022/04/27 02:30:41;;;;;;;8.20;7.60;;;4.70;99.90;;;;;;485293;245;27548;-71
2022/04/27 02:32:45;;;;;;;8.45;7.85;;;4.70;99.90;;;;;;485255;245;27509;-69
2022/04/27 02:34:44;;;;;;;7.25;6.75;;;4.70;99.90;;;;;;485198;245;27544;-71
2022/04/27 02:36:45;;;;;;;7.37;6.87;;;4.70;99.90;;;;;;485296;245;27494;-69
2022/04/27 02:38:46;;;;;;;8.93;8.40;;;4.70;99.90;;;;;;485299;245;27536;-70
2022/04/27 02:40:48;;;;;;;9.02;8.20;;;4.60;99.90;;;;;;485299;245;27561;-72
2022/04/27 02:42:49;;;;;;;9.57;9.00;;;4.70;99.90;;;;;;485298;245;27616;-69
2022/04/27 02:44:50;;;;;;;8.93;8.32;;;4.60;99.90;;;;;;485296;245;27605;-69
2022/04/27 02:46:51;;;;;;;8.10;7.60;;;4.60;99.90;;;;;;485312;242;27505;-70
2022/04/27 02:53:31;;;;;;;8.57;8.00;;;4.50;99.90;;;;;;485190;245;27938;-70
2022/04/27 02:55:33;;;;;;;8.98;8.38;;;4.50;99.90;;;;;;484964;241;28008;-70
2022/04/27 02:57:34;;;;;;;8.10;7.50;;;4.40;99.90;;;;;;484051;245;27544;-70
2022/04/27 02:59:35;;;;;;;8.10;7.60;;;4.50;99.90;;;;;;484923;245;27487;-69
2022/04/27 03:01:38;;;;;;;7.68;7.18;;;4.40;99.90;;;;;;485303;245;27529;-71
2022/04/27 03:03:38;;;;;;;8.25;7.75;;;4.40;99.90;;;;;;485214;245;28110;-70
2022/04/27 03:05:40;;;;;;;8.13;7.55;;;4.40;99.90;;;;;;485286;244;27964;-70
2022/04/27 03:07:40;;;;;;;7.62;7.12;;;4.30;99.90;;;;;;485188;245;28000;-72
2022/04/27 03:09:41;;;;;;;8.50;7.90;;;4.30;99.90;;;;;;485271;245;27489;-70
2022/04/27 03:11:43;;;;;;;8.50;8.00;;;4.30;99.90;;;;;;485306;245;27625;-71
2022/04/27 03:13:44;;;;;;;9.55;9.05;;;4.20;99.90;;;;;;485275;245;27493;-70
2022/04/27 03:15:45;;;;;;;8.88;8.30;;;4.20;99.90;;;;;;485271;245;27513;-70
2022/04/27 03:18:16;;;;;;;8.70;8.10;;;4.20;99.90;;;;;;485302;245;27628;-73
2022/04/27 03:19:48;;;;;;;7.53;7.03;;;4.20;99.90;;;;;;483895;245;27620;-69
2022/04/27 03:21:50;;;;;;;9.05;8.45;;;4.10;99.90;;;;;;485274;245;27518;-70
2022/04/27 03:23:50;;;;;;;7.45;6.95;;;4.20;99.90;;;;;;485248;245;27482;-69
2022/04/27 03:25:52;;;;;;;8.30;7.70;;;4.10;99.90;;;;;;485307;245;27532;-70
2022/04/27 03:27:53;;;;;;;8.30;7.80;;;4.10;99.90;;;;;;485342;245;27915;-71
2022/04/27 03:29:54;;;;;;;9.23;8.73;;;4.10;99.90;;;;;;485326;245;27925;-69
2022/04/27 03:31:55;;;;;;;8.93;8.43;;;4.00;99.90;;;;;;485341;245;28123;-69
2022/04/27 03:33:57;;;;;;;9.10;8.60;;;4.00;99.90;;;;;;485331;245;27923;-69
2022/04/27 03:35:58;;;;;;;9.30;8.80;;;3.90;99.90;;;;;;485332;245;27429;-69
2022/04/27 03:37:59;;;;;;;8.80;8.20;;;3.90;99.90;;;;;;485344;245;27523;-70
2022/04/27 03:40:00;;;;;;;9.27;8.77;;;3.90;99.90;;;;;;485332;245;27993;-69
2022/04/27 03:42:03;;;;;;;11.10;10.40;;;3.90;99.90;;;;;;485333;245;28001;-70
2022/04/27 03:44:03;;;;;;;9.80;9.20;;;3.80;99.90;;;;;;485258;245;28089;-69
2022/04/27 03:46:04;;;;;;;11.45;10.75;;;3.80;99.90;;;;;;485347;245;27382;-69
2022/04/27 03:48:05;;;;;;;10.82;10.13;;;3.80;99.90;;;;;;485305;244;27534;-71
2022/04/27 03:50:07;;;;;;;11.70;11.00;;;3.80;99.90;;;;;;485329;244;27433;-69
2022/04/27 03:52:08;;;;;;;8.70;8.20;;;3.80;99.90;;;;;;485276;244;27453;-70
2022/04/27 03:54:09;;;;;;;9.10;8.50;;;3.80;99.90;;;;;;485280;245;27524;-71
2022/04/27 03:56:10;;;;;;;9.27;8.68;;;3.80;99.90;;;;;;485313;245;27498;-69
2022/04/27 03:58:12;;;;;;;9.30;8.70;;;3.80;99.90;;;;;;485329;245;27522;-69
2022/04/27 04:00:13;;;;;;;8.25;7.65;;;3.80;99.90;;;;;;485327;245;27537;-69
2022/04/27 04:02:14;;;;;;;7.68;7.07;;;3.80;99.90;;;;;;485312;245;27398;-69
2022/04/27 04:04:15;;;;;;;7.95;7.45;;;3.80;99.90;;;;;;485307;245;27502;-71
2022/04/27 04:06:17;;;;;;;7.90;7.40;;;3.80;99.90;;;;;;485329;245;28091;-69
2022/04/27 04:08:18;;;;;;;8.90;8.35;;;3.90;99.90;;;;;;485320;245;28005;-70
2022/04/27 04:10:19;;;;;;;8.82;8.25;;;3.90;99.90;;;;;;485346;245;28622;-69
2022/04/27 04:12:20;;;;;;;8.00;7.50;;;3.90;99.90;;;;;;485330;245;27937;-69
2022/04/27 04:14:22;;;;;;;9.15;8.55;;;3.90;99.90;;;;;;485310;245;27605;-71
2022/04/27 04:16:23;;;;;;;9.95;9.35;;;3.80;99.90;;;;;;485320;245;27507;-70
2022/04/27 04:18:24;;;;;;;12.07;11.30;;;3.80;99.90;;;;;;485314;245;27609;-70
2022/04/27 04:20:25;;;;;;;8.98;8.38;;;3.80;99.90;;;;;;485252;244;27502;-69
2022/04/27 04:22:27;;;;;;;11.50;10.80;;;3.90;99.90;;;;;;485309;245;27637;-69
2022/04/27 04:24:28;;;;;;;10.02;9.43;;;3.90;99.90;;;;;;485246;244;27564;-70
2022/04/27 04:28:49;;;;;;;10.80;10.00;;;4.00;99.90;;;;;;485268;242;27481;-69
2022/04/27 04:30:50;;;;;;;10.57;9.90;;;4.10;99.90;;;;;;485294;244;27522;-71
2022/04/27 04:32:51;;;;;;;8.93;8.43;;;4.10;99.90;;;;;;485298;245;27428;-69
2022/04/27 04:34:53;;;;;;;8.70;8.10;;;4.20;99.90;;;;;;485280;245;27532;-69
2022/04/27 04:36:54;;;;;;;7.87;7.40;;;4.30;99.90;;;;;;485268;245;27513;-75
2022/04/27 04:38:55;;;;;;;8.23;7.72;;;4.40;99.90;;;;;;485348;245;27600;-69
2022/04/27 04:40:56;;;;;;;8.10;7.60;;;4.40;99.90;;;;;;485271;245;28079;-70
2022/04/27 04:42:58;;;;;;;7.90;7.40;;;4.50;99.90;;;;;;485300;245;28006;-70
2022/04/27 04:44:59;;;;;;;6.95;6.45;;;4.40;99.90;;;;;;485335;245;27983;-69
2022/04/27 04:47:00;;;;;;;7.75;7.15;;;4.50;99.90;;;;;;485295;245;27512;-70
2022/04/27 04:49:01;;;;;;;7.15;6.57;;;4.50;99.90;;;;;;485334;244;27503;-70
2022/04/27 04:51:03;;;;;;;6.00;5.60;;;4.50;99.90;;;;;;485333;245;27437;-71
2022/04/27 04:53:04;;;;;;;6.50;6.10;;;4.50;99.90;;;;;;485250;245;27502;-69
2022/04/27 04:55:05;;;;;;;7.20;6.65;;;4.60;99.90;;;;;;485307;245;27523;-69
2022/04/27 04:57:06;;;;;;;7.60;7.00;;;4.60;99.90;;;;;;485310;245;27549;-72
2022/04/27 04:59:08;;;;;;;6.75;6.25;;;4.60;99.90;;;;;;485325;242;27508;-69
2022/04/27 05:01:09;;;;;;;6.90;6.45;;;4.70;99.90;;;;;;485325;245;27449;-70
2022/04/27 05:03:11;;;;;;;7.03;6.47;;;4.60;99.90;;;;;;485309;245;28031;-69
2022/04/27 05:05:11;;;;;;;6.55;6.05;;;4.60;99.90;;;;;;485288;245;27952;-69
2022/04/27 05:07:13;;;;;;;7.75;7.18;;;4.60;99.90;;;;;;485314;245;27638;-72
2022/04/27 05:09:14;;;;;;;8.75;8.15;;;4.70;99.90;;;;;;485334;245;27591;-69
2022/04/27 05:11:15;;;;;;;8.57;7.97;;;4.80;99.90;;;;;;485322;245;27620;-70
2022/04/27 05:13:16;;;;;;;8.07;7.47;;;4.80;99.90;;;;;;485306;245;27530;-69
2022/04/27 05:15:18;;;;;;;7.60;7.10;;;4.80;99.90;;;;;;485322;245;27510;-69
2022/04/27 05:17:19;;;;;;;9.05;8.45;;;4.80;99.90;;;;;;485297;245;27584;-72
2022/04/27 05:19:21;;;;;;;8.48;7.90;;;4.80;99.90;;;;;;485326;245;27497;-69
2022/04/27 05:21:21;;;;;;;8.38;7.78;;;4.80;99.90;;;;;;485273;245;27997;-69
2022/04/27 05:23:23;;;;;;;8.68;8.07;;;4.90;99.90;;;;;;485337;245;29792;-69
2022/04/27 05:25:24;;;;;;;8.25;7.72;;;5.00;99.90;;;;;;485330;242;27502;-70
2022/04/27 05:27:25;;;;;;;8.35;7.75;;;5.10;99.90;;;;;;485287;245;27616;-71
2022/04/27 05:31:57;;;;;;;8.60;8.00;;;5.10;99.90;;;;;;485339;244;27951;-69
2022/04/27 05:33:57;;;;;;;9.27;8.68;;;5.10;99.90;;;;;;485258;245;28008;-70
2022/04/27 05:35:58;;;;;;;8.30;7.75;;;5.10;99.90;;;;;;485306;245;27552;-70
2022/04/27 05:37:59;;;;;;;7.87;7.37;;;5.20;99.90;;;;;;485343;245;27627;-69
2022/04/27 05:40:00;;;;;;;8.63;8.02;;;5.30;99.90;;;;;;485339;245;27437;-71
2022/04/27 05:42:02;;;;;;;9.15;8.50;;;5.40;99.90;;;;;;485315;245;27573;-70
2022/04/27 05:44:03;;;;;;;8.50;7.93;;;5.50;99.90;;;;;;485321;245;27518;-71
2022/04/27 05:46:06;;;;;;;9.15;8.45;;;5.60;99.90;;;;;;485309;245;27544;-69
2022/04/27 05:48:05;;;;;;;8.90;8.30;;;5.60;99.90;;;;;;485221;245;28723;-74
2022/04/27 05:50:07;;;;;;;9.05;8.40;;;5.60;99.90;;;;;;485310;245;28066;-71
2022/04/27 05:52:08;;;;;;;10.30;9.65;;;5.70;99.90;;;;;;485300;245;27522;-72
2022/04/27 05:54:09;;;;;;;9.35;8.75;;;5.80;99.90;;;;;;485245;245;27473;-71
2022/04/27 05:56:12;;;;;;;10.52;9.85;;;5.80;99.90;;;;;;485281;245;27622;-71
2022/04/27 05:58:12;;;;;;;11.15;10.45;;;5.90;99.90;;;;;;485226;245;27516;-74
2022/04/27 06:00:13;;;;;;;12.18;11.38;;;6.00;99.90;;;;;;485214;244;27412;-71
2022/04/27 06:02:14;;;;;;;11.35;10.55;;;6.10;99.90;;;;;;485196;242;28017;-69
2022/04/27 06:04:16;;;;;;;11.45;10.60;;;6.20;99.90;;;;;;485182;244;27612;-69
2022/04/27 06:06:17;;;;;;;16.10;14.73;;;6.40;99.90;;;;;;485179;244;27521;-71
2022/04/27 06:08:18;;;;;;;18.02;16.10;;;6.70;99.90;;;;;;485317;244;27619;-72
2022/04/27 06:10:19;;;;;;;16.60;14.80;;;6.80;99.90;;;;;;485314;244;27497;-71
2022/04/27 06:12:23;;;;;;;22.45;18.27;;;7.00;99.90;;;;;;485326;244;28095;-69
2022/04/27 06:14:22;;;;;;;25.17;19.33;;;7.00;99.90;;;;;;485157;245;27513;-68
2022/04/27 06:16:24;;;;;;;24.50;19.80;;;7.10;99.90;;;;;;485324;244;28668;-69
2022/04/27 06:18:25;;;;;;;26.67;20.42;;;7.10;99.90;;;;;;485317;244;28902;-72
2022/04/27 06:20:26;;;;;;;27.80;21.33;;;7.20;99.90;;;;;;485345;244;27623;-71
2022/04/27 06:22:27;;;;;;;28.60;21.58;;;7.20;99.90;;;;;;485331;244;28059;-74
2022/04/27 06:24:29;;;;;;;31.10;22.30;;;7.30;99.90;;;;;;485340;244;28091;-72
2022/04/27 06:26:33;;;;;;;32.10;22.80;;;7.30;99.90;;;;;;485277;245;28538;-71
2022/04/27 06:28:31;;;;;;;27.93;21.40;;;7.40;99.90;;;;;;485117;245;27784;-71
2022/04/27 06:30:35;;;;;;;30.70;22.00;;;7.30;99.90;;;;;;485325;244;27816;-71
2022/04/27 06:32:33;;;;;;;29.23;21.20;;;7.40;99.90;;;;;;485151;245;28003;-71
2022/04/27 06:34:34;;;;;;;26.60;21.30;;;7.40;99.90;;;;;;485331;244;27556;-72
2022/04/27 06:36:36;;;;;;;33.13;23.80;;;7.50;99.90;;;;;;485322;244;27869;-71
2022/04/27 06:38:37;;;;;;;32.73;23.53;;;7.60;99.90;;;;;;485331;244;28335;-72
2022/04/27 06:40:38;;;;;;;33.57;27.30;;;7.60;99.90;;;;;;485325;244;28476;-71
2022/04/27 06:42:39;;;;;;;31.00;23.57;;;7.50;99.90;;;;;;485337;244;27521;-71
2022/04/27 06:44:41;;;;;;;29.50;22.83;;;7.70;99.90;;;;;;485332;244;27899;-73
2022/04/27 06:46:42;;;;;;;34.10;23.17;;;7.60;99.90;;;;;;485330;244;28167;-71
2022/04/27 06:48:45;;;;;;;30.50;22.40;;;7.70;99.90;;;;;;485353;244;27888;-72
2022/04/27 06:50:45;;;;;;;31.97;22.97;;;7.70;99.90;;;;;;485259;245;27985;-71
2022/04/27 06:52:49;;;;;;;29.07;20.87;;;7.80;99.90;;;;;;485343;244;27974;-71
2022/04/27 06:54:50;;;;;;;26.90;19.37;;;7.90;99.90;;;;;;485297;244;27990;-72
2022/04/27 06:56:51;;;;;;;25.10;18.93;;;8.00;99.90;;;;;;485340;244;28006;-72
2022/04/27 06:58:52;;;;;;;30.23;22.47;;;8.20;99.90;;;;;;485326;244;28067;-71
2022/04/27 07:00:54;;;;;;;27.13;20.07;;;7.80;99.90;;;;;;485336;244;28068;-72
2022/04/27 07:02:55;;;;;;;26.20;20.00;;;7.90;99.90;;;;;;485065;245;28056;-72
2022/04/27 07:04:59;;;;;;;27.93;21.37;;;8.00;99.90;;;;;;485177;245;27981;-71
2022/04/27 07:06:58;;;;;;;28.20;20.57;;;8.00;99.90;;;;;;485131;245;28303;-72
2022/04/27 07:08:59;;;;;;;26.00;20.80;;;8.10;99.90;;;;;;485322;242;28386;-71
2022/04/27 07:11:00;;;;;;;23.80;19.83;;;8.20;99.90;;;;;;485304;244;28426;-71
2022/04/27 07:13:01;;;;;;;25.87;19.33;;;8.30;99.90;;;;;;485313;244;27639;-71
2022/04/27 07:15:03;;;;;;;27.40;19.70;;;8.30;99.90;;;;;;485325;244;27714;-72
2022/04/27 07:17:04;;;;;;;26.60;20.30;;;8.40;99.90;;;;;;485322;244;27749;-74
2022/04/27 07:19:05;;;;;;;29.30;22.17;;;8.20;99.90;;;;;;485316;244;27983;-71
2022/04/27 07:21:08;;;;;;;29.13;22.80;;;8.30;99.90;;;;;;485279;244;27742;-73
2022/04/27 07:23:08;;;;;;;26.30;20.03;;;8.50;99.90;;;;;;485226;245;27887;-71
2022/04/27 07:25:09;;;;;;;24.63;19.10;;;8.60;99.90;;;;;;485303;244;28375;-72
2022/04/27 07:27:10;;;;;;;24.40;18.20;;;8.80;99.90;;;;;;485315;245;28448;-73
2022/04/27 07:29:12;;;;;;;21.10;16.97;;;9.00;99.90;;;;;;485305;244;28055;-71
2022/04/27 07:31:13;;;;;;;21.30;17.00;;;9.10;99.90;;;;;;485335;244;27975;-73
2022/04/27 07:33:14;;;;;;;27.60;19.47;;;9.10;99.90;;;;;;485334;244;27647;-72
2022/04/27 07:35:18;;;;;;;29.60;20.70;;;8.90;99.90;;;;;;485329;244;27496;-72
2022/04/27 07:37:16;;;;;;;26.20;21.30;;;8.70;99.90;;;;;;485163;245;27884;-73
2022/04/27 07:39:18;;;;;;;25.00;20.00;;;8.60;99.90;;;;;;485318;244;28031;-72
2022/04/27 07:41:19;;;;;;;25.90;20.83;;;8.70;99.90;;;;;;485288;244;27656;-72
2022/04/27 07:43:20;;;;;;;26.50;20.57;;;8.60;99.90;;;;;;485255;244;28403;-72
2022/04/27 07:45:21;;;;;;;24.33;19.73;;;8.60;99.90;;;;;;485316;244;27975;-72
2022/04/27 07:47:23;;;;;;;20.80;18.47;;;9.00;99.90;;;;;;485311;244;28460;-73
2022/04/27 07:49:24;;;;;;;22.23;17.13;;;9.20;99.90;;;;;;485319;244;28533;-72
2022/04/27 07:51:25;;;;;;;26.13;19.80;;;8.90;99.90;;;;;;485320;244;27998;-71
2022/04/27 07:53:26;;;;;;;23.17;18.00;;;8.70;99.90;;;;;;485308;244;27769;-72
2022/04/27 07:55:29;;;;;;;24.00;17.97;;;8.90;99.90;;;;;;485333;244;28069;-71
2022/04/27 07:57:30;;;;;;;24.83;18.47;;;9.10;99.90;;;;;;485240;245;27905;-72
2022/04/27 07:59:30;;;;;;;22.63;16.97;;;9.30;99.90;;;;;;485311;245;28040;-72
2022/04/27 08:01:32;;;;;;;21.67;16.97;;;9.60;99.90;;;;;;485310;244;27973;-72
2022/04/27 08:03:33;;;;;;;24.40;17.07;;;9.70;99.90;;;;;;485305;244;28917;-74
2022/04/27 08:05:34;;;;;;;18.60;15.90;;;9.70;99.90;;;;;;485337;244;28419;-73
2022/04/27 08:07:35;;;;;;;19.83;16.23;;;9.90;99.90;;;;;;485321;244;28332;-72
2022/04/27 08:09:37;;;;;;;19.23;16.00;;;9.90;99.90;;;;;;485346;244;28099;-72
2022/04/27 08:11:41;;;;;;;18.97;15.50;;;10.10;99.90;;;;;;485359;244;27990;-73
2022/04/27 08:13:39;;;;;;;16.03;13.40;;;10.10;99.90;;;;;;485200;245;28011;-71
2022/04/27 08:15:40;;;;;;;18.23;14.33;;;10.10;99.90;;;;;;485371;244;27945;-71
2022/04/27 08:17:42;;;;;;;22.33;17.33;;;9.90;99.90;;;;;;485342;244;28002;-73
2022/04/27 08:19:43;;;;;;;22.53;18.97;;;9.40;99.90;;;;;;485330;244;28239;-71
2022/04/27 08:21:44;;;;;;;26.50;18.30;;;9.00;99.90;;;;;;485326;244;28341;-72
2022/04/27 08:23:45;;;;;;;24.57;19.80;;;9.00;99.90;;;;;;485338;244;28220;-71
2022/04/27 08:25:47;;;;;;;26.00;19.90;;;9.00;99.90;;;;;;485362;244;27957;-72
2022/04/27 08:27:48;;;;;;;24.47;18.50;;;9.00;99.90;;;;;;485342;244;27898;-72
2022/04/27 08:29:49;;;;;;;20.57;16.80;;;9.20;99.90;;;;;;485301;244;27964;-72
2022/04/27 08:31:52;;;;;;;18.40;15.77;;;9.30;99.90;;;;;;485335;244;27899;-71
2022/04/27 08:33:52;;;;;;;17.13;14.40;;;9.50;99.90;;;;;;485230;245;28235;-71
2022/04/27 08:36:03;;;;;;;16.83;15.03;;;9.60;99.90;;;;;;485342;244;27972;-72
2022/04/27 08:37:54;;;;;;;17.80;15.80;;;9.70;99.90;;;;;;484632;245;28471;-72
2022/04/27 08:39:55;;;;;;;18.67;16.23;;;9.80;99.90;;;;;;485340;244;28419;-72
2022/04/27 08:41:57;;;;;;;16.07;14.43;;;9.80;99.90;;;;;;485306;244;28072;-71
2022/04/27 08:43:58;;;;;;;20.10;16.30;;;9.80;99.90;;;;;;485358;244;27906;-72
2022/04/27 08:45:59;;;;;;;20.60;15.47;;;10.00;99.90;;;;;;485348;244;27864;-72
2022/04/27 08:48:00;;;;;;;17.13;15.33;;;10.30;99.90;;;;;;485339;244;28055;-72
2022/04/27 08:50:02;;;;;;;14.53;12.90;;;10.30;99.90;;;;;;485341;244;27994;-71
2022/04/27 08:52:03;;;;;;;15.70;14.00;;;10.40;99.90;;;;;;485337;244;27753;-72
2022/04/27 08:54:04;;;;;;;13.67;12.17;;;10.60;99.90;;;;;;485354;244;28483;-75
2022/04/27 08:56:05;;;;;;;13.70;11.40;;;10.70;99.90;;;;;;485355;244;28340;-72
2022/04/27 08:58:07;;;;;;;13.83;12.40;;;10.80;99.90;;;;;;485316;244;27897;-72
2022/04/27 09:00:08;;;;;;;13.27;11.80;;;10.80;99.90;;;;;;485373;245;28116;-72
2022/04/27 09:02:09;;;;;;;12.50;10.37;;;10.90;99.90;;;;;;485346;244;28002;-72
2022/04/27 09:04:10;;;;;;;12.33;11.03;;;10.90;99.90;;;;;;485350;244;27857;-72
2022/04/27 09:06:12;;;;;;;11.20;10.10;;;11.00;99.90;;;;;;485192;244;27879;-71
2022/04/27 09:08:13;;;;;;;12.33;10.77;;;11.20;99.90;;;;;;485303;244;28469;-73
2022/04/27 09:10:15;;;;;;;12.90;10.10;;;11.10;99.90;;;;;;485341;244;28530;-71
2022/04/27 09:12:15;;;;;;;10.90;9.80;;;11.10;99.90;;;;;;485331;244;27983;-72
2022/04/27 09:14:17;;;;;;;10.87;9.77;;;11.30;99.90;;;;;;485343;245;27878;-73
2022/04/27 09:16:18;;;;;;;12.20;11.03;;;11.60;99.90;;;;;;485323;245;28259;-71
2022/04/27 09:20:50;;;;;;;11.80;10.70;;;11.60;99.90;;;;;;485334;245;28154;-72
2022/04/27 09:22:51;;;;;;;10.97;9.87;;;11.70;99.90;;;;;;485196;245;28332;-74
2022/04/27 09:24:51;;;;;;;10.27;9.27;;;11.90;99.90;;;;;;485270;245;28095;-72
2022/04/27 09:26:52;;;;;;;12.50;11.30;;;11.90;99.90;;;;;;485297;245;28251;-72
2022/04/27 09:28:56;;;;;;;12.80;11.17;;;11.60;99.90;;;;;;485316;244;28226;-72
2022/04/27 09:30:58;;;;;;;14.20;12.70;;;11.60;99.90;;;;;;485335;244;28246;-72
2022/04/27 09:32:58;;;;;;;13.63;11.60;;;11.50;99.90;;;;;;485325;244;28336;-72
2022/04/27 09:35:02;;;;;;;13.47;11.00;;;11.50;99.90;;;;;;485289;244;28217;-72
2022/04/27 09:37:02;;;;;;;11.93;10.67;;;11.70;99.90;;;;;;485215;245;28197;-72
2022/04/27 09:39:02;;;;;;;14.20;11.10;;;11.70;99.90;;;;;;485278;244;28239;-72
2022/04/27 09:41:03;;;;;;;15.07;10.03;;;11.60;99.90;;;;;;485307;244;29129;-72
2022/04/27 09:43:05;;;;;;;10.67;9.57;;;11.80;99.90;;;;;;485357;244;28865;-72
2022/04/27 09:45:06;;;;;;;12.63;10.63;;;12.20;99.90;;;;;;485355;245;28339;-72
2022/04/27 09:47:07;;;;;;;11.27;10.00;;;12.10;99.90;;;;;;485362;244;28805;-72
2022/04/27 09:49:09;;;;;;;12.13;10.80;;;12.10;99.90;;;;;;485348;242;28713;-72
2022/04/27 09:51:10;;;;;;;15.60;13.77;;;12.30;99.90;;;;;;485344;242;28492;-75
2022/04/27 09:53:11;;;;;;;11.83;10.63;;;12.10;99.90;;;;;;485374;244;28035;-72
2022/04/27 09:55:12;;;;;;;12.03;10.77;;;11.90;99.90;;;;;;485316;244;28545;-73
2022/04/27 09:57:13;;;;;;;11.83;10.83;;;11.90;99.90;;;;;;485344;244;28560;-72
2022/04/27 09:59:15;;;;;;;12.13;11.03;;;12.00;99.90;;;;;;485323;244;28473;-72
2022/04/27 10:01:16;;;;;;;12.97;11.70;;;12.20;99.90;;;;;;485362;244;29039;-72
2022/04/27 10:03:18;;;;;;;13.97;11.93;;;12.30;99.90;;;;;;485342;244;28936;-72
2022/04/27 10:05:18;;;;;;;13.43;12.03;;;12.10;99.90;;;;;;485288;244;28266;-72
2022/04/27 10:07:20;;;;;;;13.50;11.17;;;12.20;99.90;;;;;;485338;244;28965;-72
2022/04/27 10:09:22;;;;;;;13.70;10.73;;;;;;;;;;485351;244;28842;-71
2022/04/27 10:11:23;;;;;;;12.70;11.50;;;12.80;99.90;;;;;;485338;245;27425;-72
2022/04/27 10:13:25;;;;;;;14.00;12.70;;;12.70;99.90;;;;;;485349;244;29044;-73
2022/04/27 10:15:27;;;;;;;15.60;14.07;;;12.60;99.90;;;;;;485205;244;28669;-72
2022/04/27 10:17:28;;;;;;;12.87;11.57;;;12.40;99.90;;;;;;485335;244;28990;-72
2022/04/27 10:19:29;;;;;;;14.13;11.90;;;12.30;99.90;;;;;;485325;244;28947;-72
2022/04/27 10:21:38;;;;;;;13.10;11.93;;;12.30;99.90;;;;;;485353;244;28080;-71
2022/04/27 10:23:32;;;;;;;13.70;12.30;;;12.40;99.90;;;;;;484855;245;28091;-72
2022/04/27 10:25:33;;;;;;;16.77;10.87;;;12.30;99.90;;;;;;485297;245;28571;-73
2022/04/27 10:27:34;;;;;;;14.00;12.50;;;12.50;99.90;;;;;;485352;244;28607;-72
2022/04/27 10:29:35;;;;;;;13.87;12.57;;;12.60;99.90;;;;;;485365;244;28787;-73
2022/04/27 10:31:36;;;;;;;12.77;11.77;;;12.90;99.90;;;;;;485182;244;29326;-72
2022/04/27 10:33:38;;;;;;;15.03;12.93;;;13.00;99.90;;;;;;485285;245;28764;-72
2022/04/27 10:35:39;;;;;;;13.80;12.50;;;13.00;99.90;;;;;;485288;242;28386;-73
2022/04/27 10:37:41;;;;;;;12.53;11.33;;;;;;;;;;485334;244;28203;-72
2022/04/27 10:39:45;;;;;;;11.40;10.40;;;13.00;99.90;;;;;;485344;245;27626;-73
2022/04/27 10:41:44;;;;;;;10.53;9.43;;;13.20;99.90;;;;;;485254;245;28569;-72
2022/04/27 10:43:45;;;;;;;10.40;9.50;;;13.50;99.90;;;;;;485336;245;28802;-73
2022/04/27 10:45:50;;;;;;;11.40;10.40;;;13.50;99.90;;;;;;485291;245;28764;-72